Time;durP1;ratioP1;P1;durP2;ratioP2;P2;SDS_P1;SDS_P2;PMS_P1;PMS_P2;Temp;Humidity;BMP_temperature;BMP_pressure;BME280_temperature;BME280_humidity;BME280_pressure;Samples;Min_cycle;Max_cycle;Signal;HPM_P1;HPM_P2
2021/05/06 00:08:33;;;;;;;1.35;1.13;;;;;;;7.85;82.02;98902.36;713604;1200;113791;-75
2021/05/06 00:39:43;;;;;;;4.80;2.10;;;;;;;7.26;88.28;98912.45;713638;1200;113639;-74
2021/05/06 01:11:27;;;;;;;49.13;16.57;;;;;;;6.95;92.08;98920.58;713735;1200;113810;-74
2021/05/06 01:26:46;;;;;;;29.65;10.35;;;;;;;6.75;95.12;98923.28;713883;1177;113810;-74
2021/05/06 01:42:19;;;;;;;93.85;29.78;;;;;;;6.60;97.97;98930.75;713768;1202;114685;-74
2021/05/06 01:58:00;;;;;;;58.53;16.30;;;;;;;6.54;97.52;98926.09;713390;1200;114042;-75
2021/05/06 02:13:21;;;;;;;74.80;24.93;;;;;;;6.60;96.99;98916.91;713558;1202;114281;-74
2021/05/06 02:28:42;;;;;;;34.83;11.73;;;;;;;6.61;96.32;98928.95;713659;1176;113471;-74
2021/05/06 02:44:02;;;;;;;29.27;12.63;;;;;;;6.73;93.96;98953.89;713533;1200;114275;-75
2021/05/06 03:31:21;;;;;;;;;;;;;;;6.61;87.36;98986.28;713703;1176;113640;-75
2021/05/06 04:17:46;;;;;;;9.35;2.70;;;;;;;6.33;84.13;99048.72;714117;1202;114177;-74
2021/05/06 05:04:33;;;;;;;9.83;2.60;;;;;;;6.66;80.37;99096.14;716430;1166;114324;-76
2021/05/06 05:35:41;;;;;;;4.57;3.07;;;;;;;6.47;75.77;99118.64;713958;1203;114174;-78
2021/05/06 06:06:40;;;;;;;;;;;;;;;6.59;74.83;99157.61;713799;1206;113314;-76
2021/05/06 06:22:05;;;;;;;37.00;12.28;;;;;;;6.85;74.33;99172.67;714105;1200;100972;-78
2021/05/06 06:37:26;;;;;;;36.43;9.85;;;;;;;7.00;72.93;99168.69;714063;1200;114406;-78
2021/05/06 06:52:48;;;;;;;25.08;8.55;;;;;;;7.04;72.55;99175.27;715086;1200;113488;-75
2021/05/06 07:08:21;;;;;;;7.13;2.87;;;;;;;7.32;71.54;99189.23;713795;1205;114234;-77
2021/05/06 07:23:42;;;;;;;5.50;2.65;;;;;;;8.23;69.68;99189.53;713633;1205;113184;-78
2021/05/06 07:39:06;;;;;;;7.93;2.80;;;;;;;8.17;68.06;99209.23;713900;1205;114414;-79
2021/05/06 07:54:30;;;;;;;10.20;4.05;;;;;;;8.41;65.02;99211.29;714465;1200;114379;-79
2021/05/06 08:09:53;;;;;;;8.48;2.48;;;;;;;9.14;61.17;99217.36;714796;1177;113895;-79
2021/05/06 08:25:15;;;;;;;6.10;2.03;;;;;;;9.36;60.93;99228.30;713920;1200;114769;-80
2021/05/06 08:40:37;;;;;;;4.43;1.93;;;;;;;9.63;57.85;99258.75;714130;1204;113351;-80
2021/05/06 08:55:58;;;;;;;9.75;4.43;;;;;;;10.37;57.25;99248.64;714187;1200;114070;-77
2021/05/06 09:11:38;;;;;;;10.15;4.03;;;;;;;10.40;55.34;99256.22;713920;1205;113718;-79
2021/05/06 09:27:01;;;;;;;4.40;1.87;;;;;;;11.14;53.91;99294.89;714253;1193;113704;-76
2021/05/06 09:42:39;;;;;;;6.53;2.43;;;;;;;11.96;51.96;99301.91;714137;1204;115307;-76
2021/05/06 09:58:20;;;;;;;7.83;1.90;;;;;;;12.11;49.35;99292.31;714012;1206;113742;-77
2021/05/06 10:18:24;;;;;;;11.80;3.08;;;;;;;12.23;46.63;99299.84;716202;1191;23115;-75
2021/05/06 10:33:46;;;;;;;6.88;2.10;;;;;;;12.21;46.16;99323.69;715223;1201;114354;-76
2021/05/06 10:49:06;;;;;;;10.60;2.57;;;;;;;11.63;46.37;99333.45;715201;1201;113245;-79
2021/05/06 11:04:38;;;;;;;5.13;2.23;;;;;;;12.43;43.10;99332.66;715355;1174;113468;-75
2021/05/06 11:20:00;;;;;;;9.13;2.53;;;;;;;13.10;42.22;99328.66;715707;1202;113568;-74
2021/05/06 11:35:20;;;;;;;11.68;2.80;;;;;;;13.02;40.68;99351.61;715473;1196;113281;-73
2021/05/06 11:50:44;;;;;;;19.28;3.28;;;;;;;13.10;43.02;99354.98;715947;1174;113378;-76
2021/05/06 12:06:07;;;;;;;15.00;3.97;;;;;;;13.91;42.98;99341.39;715817;1196;113386;-76
2021/05/06 12:21:30;;;;;;;5.45;2.00;;;;;;;14.31;41.14;99328.75;715154;1198;114112;-78
2021/05/06 12:36:54;;;;;;;8.30;2.20;;;;;;;14.61;40.96;99338.48;715975;1200;113197;-77
2021/05/06 12:52:28;;;;;;;7.35;2.40;;;;;;;15.14;40.11;99322.42;715345;1199;113656;-78
2021/05/06 13:07:50;;;;;;;7.10;2.33;;;;;;;14.89;40.85;99335.97;715423;1199;113527;-77
2021/05/06 13:23:22;;;;;;;6.53;1.90;;;;;;;13.87;41.88;99334.00;714968;1176;113417;-76
2021/05/06 13:38:51;;;;;;;8.73;2.20;;;;;;;13.83;41.42;99330.93;716048;1202;113718;-76
2021/05/06 13:54:11;;;;;;;8.20;2.33;;;;;;;13.55;42.15;99323.58;715137;1202;114616;-76
2021/05/06 14:09:32;;;;;;;8.95;3.40;;;;;;;14.09;43.27;99321.75;715093;1202;112929;-75
2021/05/06 14:24:52;;;;;;;9.80;4.25;;;;;;;13.94;43.13;99329.66;715025;1199;113502;-76
2021/05/06 14:40:13;;;;;;;11.50;5.13;;;;;;;15.07;40.93;99309.16;715720;1202;114034;-77
2021/05/06 14:55:33;;;;;;;12.15;8.18;;;;;;;13.68;42.99;99301.09;715173;1199;114821;-81
2021/05/06 15:10:54;;;;;;;11.10;4.00;;;;;;;12.57;44.94;99303.98;715036;1185;113611;-75
2021/05/06 15:26:15;;;;;;;14.03;3.53;;;;;;;12.01;49.49;99307.48;715607;1190;114666;-76
2021/05/06 15:41:36;;;;;;;46.00;18.97;;;;;;;11.97;51.03;99308.81;716222;1196;114165;-76
2021/05/06 15:56:57;;;;;;;19.13;8.90;;;;;;;11.73;52.01;99310.47;716010;1174;113650;-76
2021/05/06 16:12:17;;;;;;;11.55;4.68;;;;;;;11.77;52.91;99308.30;716189;1200;113452;-76
2021/05/06 16:27:40;;;;;;;13.75;4.55;;;;;;;11.69;52.47;99293.37;715190;1192;113495;-78
2021/05/06 16:58:41;;;;;;;17.07;5.83;;;;;;;10.85;56.53;99329.42;717968;1174;113662;-76
2021/05/06 17:14:05;;;;;;;11.73;5.48;;;;;;;10.51;60.30;99356.55;715533;1197;114148;-79
2021/05/06 17:29:27;;;;;;;13.58;5.73;;;;;;;7.72;78.57;99450.16;714913;1187;113719;-77
2021/05/06 17:44:47;;;;;;;10.58;5.48;;;;;;;7.82;75.60;99368.24;715168;1196;113715;-78
2021/05/06 18:00:08;;;;;;;9.18;7.05;;;;;;;7.79;75.74;99376.36;715036;1198;114085;-76
2021/05/06 18:15:29;;;;;;;5.77;3.63;;;;;;;7.47;79.97;99389.73;715056;1202;113259;-78
2021/05/06 18:30:50;;;;;;;3.40;2.50;;;;;;;7.56;80.76;99386.30;714928;1200;112996;-78
2021/05/06 18:46:10;;;;;;;4.78;2.40;;;;;;;7.63;81.61;99391.78;715018;1202;113343;-78
2021/05/06 19:01:31;;;;;;;5.60;2.75;;;;;;;7.48;82.77;99401.80;715563;1199;114037;-78
2021/05/06 19:16:52;;;;;;;13.85;7.70;;;;;;;7.42;82.90;99397.14;715343;1199;113443;-79
2021/05/06 19:32:13;;;;;;;15.80;9.10;;;;;;;7.30;82.12;99409.48;715154;1199;114233;-78
2021/05/06 19:47:33;;;;;;;11.08;5.83;;;;;;;7.14;82.12;99410.83;715830;1174;113278;-78
2021/05/06 20:02:54;;;;;;;46.65;22.08;;;;;;;7.06;83.12;99408.08;715350;1197;114030;-77
2021/05/06 20:18:14;;;;;;;98.70;38.73;;;;;;;6.90;84.48;99407.73;715359;1196;114871;-78
2021/05/06 20:33:35;;;;;;;20.23;11.40;;;;;;;6.78;86.54;99409.63;715325;1174;113304;-79
2021/05/06 20:48:57;;;;;;;10.13;5.25;;;;;;;6.75;88.34;99408.11;715627;1174;113885;-77
2021/05/06 21:04:17;;;;;;;12.38;5.85;;;;;;;6.73;89.55;99397.00;715981;1175;113647;-78
2021/05/06 21:19:38;;;;;;;11.03;5.85;;;;;;;6.54;93.24;99399.53;715695;1177;113391;-79
2021/05/06 21:34:58;;;;;;;9.65;6.10;;;;;;;6.36;94.87;99407.12;715591;1196;113898;-79
2021/05/06 21:50:19;;;;;;;9.20;4.90;;;;;;;6.10;96.66;99399.73;715693;1202;113253;-77
2021/05/06 22:05:41;;;;;;;14.95;7.58;;;;;;;6.00;97.93;99389.23;716446;1180;114362;-77
2021/05/06 22:21:05;;;;;;;24.23;10.55;;;;;;;5.86;98.13;99386.92;715957;1200;113542;-77
2021/05/06 22:36:26;;;;;;;23.27;10.00;;;;;;;5.62;98.87;99387.98;718975;1199;114078;-79
2021/05/06 22:51:46;;;;;;;12.77;7.20;;;;;;;5.47;100.00;99380.47;715916;1196;113415;-78
2021/05/06 23:07:06;;;;;;;13.10;6.90;;;;;;;5.49;100.00;99368.17;715464;1199;114035;-78
2021/05/06 23:22:27;;;;;;;12.15;6.60;;;;;;;5.49;100.00;99368.17;715152;1187;113426;-78
2021/05/06 23:37:48;;;;;;;13.05;7.15;;;;;;;5.45;100.00;99366.78;715704;1200;114610;-78
2021/05/06 23:53:08;;;;;;;10.73;6.70;;;;;;;5.39;100.00;99369.88;715545;1199;113463;-78
